Time;durP1;ratioP1;P1;durP2;ratioP2;P2;SDS_P1;SDS_P2;PMS_P1;PMS_P2;Temp;Humidity;BMP_temperature;BMP_pressure;BME280_temperature;BME280_humidity;BME280_pressure;Samples;Min_cycle;Max_cycle;Signal;HPM_P1;HPM_P2
2022/07/13 00:00:37;;;;;;;5.40;3.80;;;;;;;18.96;81.95;102144.94;5089113;28;20227;-72
2022/07/13 00:03:02;;;;;;;4.37;3.97;;;;;;;18.90;81.76;102138.03;5089039;28;20184;-72
2022/07/13 00:05:28;;;;;;;4.33;3.90;;;;;;;18.92;82.28;102138.88;5089058;28;20204;-72
2022/07/13 00:07:53;;;;;;;4.03;3.70;;;;;;;18.94;81.41;102133.72;5089064;28;20282;-72
2022/07/13 00:10:19;;;;;;;3.60;3.30;;;;;;;18.92;81.70;102127.63;5089719;28;20271;-72
2022/07/13 00:12:44;;;;;;;5.50;3.00;;;;;;;18.94;81.43;102121.59;5070929;28;20173;-72
2022/07/13 00:15:10;;;;;;;3.57;3.27;;;;;;;18.89;81.95;102112.88;5089116;28;20662;-72
2022/07/13 00:17:36;;;;;;;3.50;3.20;;;;;;;18.91;81.95;102110.31;5070525;28;20224;-72
2022/07/13 00:20:02;;;;;;;4.47;3.27;;;;;;;18.93;81.89;102111.22;5088738;28;20208;-72
2022/07/13 00:22:28;;;;;;;3.47;3.03;;;;;;;18.91;82.13;102106.00;5104538;28;20199;-72
2022/07/13 00:24:53;;;;;;;4.30;3.00;;;;;;;18.87;82.88;102109.44;5068967;28;20758;-74
2022/07/13 00:27:19;;;;;;;3.53;3.20;;;;;;;18.83;82.70;102105.06;5088540;28;20189;-73
2022/07/13 00:29:44;;;;;;;3.33;3.00;;;;;;;18.86;82.85;102102.50;5071034;28;20203;-74
2022/07/13 00:32:10;;;;;;;4.73;3.27;;;;;;;18.83;83.14;102097.28;5089249;28;20231;-74
2022/07/13 00:34:36;;;;;;;4.13;3.47;;;;;;;18.84;83.68;102101.63;5089821;28;20192;-74
2022/07/13 00:37:01;;;;;;;4.17;3.77;;;;;;;18.78;83.74;102092.91;5074089;28;20767;-74
2022/07/13 00:39:27;;;;;;;4.53;3.50;;;;;;;18.80;83.44;102094.66;5074668;28;20212;-73
2022/07/13 00:41:52;;;;;;;3.93;3.50;;;;;;;18.78;83.11;102093.78;5092845;28;20221;-73
2022/07/13 00:44:18;;;;;;;4.73;3.03;;;;;;;18.76;83.79;102095.53;5074030;28;20688;-73
2022/07/13 00:46:51;;;;;;;3.50;3.20;;;;;;;18.76;83.35;102095.53;5092138;28;20182;-73
2022/07/13 00:49:17;;;;;;;3.50;3.20;;;;;;;18.74;83.43;102089.44;5074077;28;20200;-73
2022/07/13 00:51:43;;;;;;;4.10;3.23;;;;;;;18.72;83.66;102087.69;5074283;28;20208;-73
2022/07/13 00:54:09;;;;;;;4.33;3.20;;;;;;;18.68;84.30;102088.53;5092281;28;20271;-73
2022/07/13 00:56:35;;;;;;;2.80;2.60;;;;;;;18.66;84.61;102091.13;5073976;28;20189;-73
2022/07/13 00:59:04;;;;;;;3.20;2.90;;;;;;;18.69;84.09;102077.28;5092179;28;20247;-73
2022/07/13 01:01:30;;;;;;;4.33;2.77;;;;;;;18.63;84.55;102082.44;5074022;28;20188;-73
2022/07/13 01:03:56;;;;;;;3.10;2.80;;;;;;;18.65;84.30;102084.19;5073727;28;20231;-74
2022/07/13 01:06:22;;;;;;;2.70;2.50;;;;;;;18.64;84.16;102073.78;5091750;28;20561;-73
2022/07/13 01:08:47;;;;;;;3.83;2.90;;;;;;;18.67;84.38;102071.22;5073910;28;20200;-73
2022/07/13 01:11:13;;;;;;;3.30;2.67;;;;;;;18.61;84.83;102064.25;5091537;28;20617;-73
2022/07/13 01:13:40;;;;;;;4.20;2.70;;;;;;;18.61;84.00;102053.88;5073731;28;20192;-73
2022/07/13 01:16:08;;;;;;;3.00;2.80;;;;;;;18.59;84.31;102054.75;5073518;28;20409;-73
2022/07/13 01:18:34;;;;;;;2.83;2.63;;;;;;;18.58;84.68;102048.69;5091177;28;20212;-73
2022/07/13 01:21:00;;;;;;;2.67;2.47;;;;;;;18.55;84.78;102055.56;5072779;28;20204;-73
2022/07/13 01:23:26;;;;;;;4.27;2.67;;;;;;;18.54;84.76;102059.91;5073584;28;20192;-73
2022/07/13 01:25:56;;;;;;;3.00;2.53;;;;;;;18.56;84.62;102054.75;5073860;28;20184;-73
2022/07/13 01:28:22;;;;;;;3.40;3.10;;;;;;;18.56;84.38;102053.00;5091613;28;20211;-73
2022/07/13 01:30:49;;;;;;;3.73;2.60;;;;;;;18.56;84.40;102053.00;5091471;28;20176;-74
2022/07/13 01:33:14;;;;;;;2.97;2.73;;;;;;;18.54;84.69;102054.72;5091634;28;20241;-73
2022/07/13 01:35:40;;;;;;;5.10;2.80;;;;;;;18.51;84.59;102059.88;5073312;28;20609;-74
2022/07/13 01:38:06;;;;;;;3.13;2.87;;;;;;;18.48;84.94;102053.81;5072899;28;20231;-73
2022/07/13 01:40:33;;;;;;;2.70;2.50;;;;;;;18.51;84.67;102044.31;5073085;28;20228;-73
2022/07/13 01:42:59;;;;;;;4.80;2.80;;;;;;;18.53;84.49;102044.34;5072928;28;20200;-74
2022/07/13 01:45:25;;;;;;;3.50;2.93;;;;;;;18.49;84.60;102033.06;5091157;28;20673;-73
2022/07/13 01:47:53;;;;;;;3.90;2.83;;;;;;;18.53;83.87;102028.75;5072247;28;20285;-74
2022/07/13 01:50:21;;;;;;;4.77;2.80;;;;;;;18.57;83.82;102020.13;5106710;28;20196;-73
2022/07/13 01:52:47;;;;;;;3.13;2.83;;;;;;;18.52;84.71;102027.03;5072838;28;20250;-73
2022/07/13 01:55:14;;;;;;;3.97;2.97;;;;;;;18.52;84.15;102025.28;5072905;28;20674;-73
2022/07/13 01:57:41;;;;;;;3.80;2.83;;;;;;;18.49;84.85;102029.59;5072495;28;20215;-74
2022/07/13 02:00:20;;;;;;;2.93;2.63;;;;;;;18.50;84.43;102027.03;5072685;28;20218;-73
2022/07/13 02:02:47;;;;;;;2.77;2.57;;;;;;;18.46;84.85;102020.06;5106500;28;20180;-73
2022/07/13 02:05:17;;;;;;;3.70;2.90;;;;;;;18.45;84.96;102009.69;5056958;28;20561;-73
2022/07/13 02:07:43;;;;;;;4.13;2.70;;;;;;;18.38;85.00;102015.72;5072278;28;20212;-73
2022/07/13 02:10:10;;;;;;;3.00;2.80;;;;;;;18.39;85.21;102007.94;5072545;28;20191;-73
2022/07/13 02:12:36;;;;;;;3.10;2.70;;;;;;;18.34;85.58;102006.16;5072603;28;20650;-73
2022/07/13 02:15:04;;;;;;;2.70;2.43;;;;;;;18.36;85.16;102001.84;5072614;28;20975;-73
2022/07/13 02:17:30;;;;;;;3.50;2.57;;;;;;;18.43;84.89;102001.88;5071371;28;20277;-73
2022/07/13 02:19:56;;;;;;;2.60;2.23;;;;;;;18.35;85.28;102003.59;5072388;28;20682;-73
2022/07/13 02:22:21;;;;;;;3.00;2.80;;;;;;;18.34;85.61;101996.63;5090632;28;20181;-73
2022/07/13 02:24:47;;;;;;;3.10;2.80;;;;;;;18.36;85.18;101999.25;5072133;28;20230;-73
2022/07/13 02:27:12;;;;;;;3.97;2.60;;;;;;;18.36;85.40;101994.94;5071677;28;20184;-73
2022/07/13 02:29:38;;;;;;;2.60;2.40;;;;;;;18.37;85.11;101986.28;5072601;28;20177;-74
2022/07/13 02:32:05;;;;;;;4.37;3.43;;;;;;;18.39;84.72;101982.00;5055577;28;20267;-73
2022/07/13 02:34:31;;;;;;;3.20;2.90;;;;;;;18.38;85.35;101981.97;5072222;28;20173;-73
2022/07/13 02:36:56;;;;;;;2.97;2.67;;;;;;;18.37;85.15;101985.44;5072270;28;20534;-73
2022/07/13 02:39:22;;;;;;;2.40;2.20;;;;;;;18.30;85.67;101976.72;5090196;28;20316;-73
2022/07/13 02:41:49;;;;;;;2.63;2.40;;;;;;;18.27;85.80;101983.59;5072145;28;20188;-74
2022/07/13 02:44:16;;;;;;;3.60;2.70;;;;;;;18.28;85.47;101987.94;5054951;28;20634;-74
2022/07/13 02:46:42;;;;;;;2.43;2.23;;;;;;;18.28;86.00;101985.34;5105722;28;20274;-73
2022/07/13 02:49:08;;;;;;;5.20;3.10;;;;;;;18.28;85.64;101985.34;5071973;28;20212;-74
2022/07/13 02:51:35;;;;;;;3.13;2.80;;;;;;;18.29;85.56;101976.72;5071809;28;20273;-73
2022/07/13 02:54:01;;;;;;;4.37;2.77;;;;;;;18.29;85.66;101974.97;5071514;28;20641;-73
2022/07/13 02:56:27;;;;;;;3.07;2.83;;;;;;;18.27;85.86;101979.28;5071098;28;20177;-73
2022/07/13 02:58:53;;;;;;;3.23;2.80;;;;;;;18.28;85.51;101973.22;5055090;28;20257;-74
2022/07/13 03:01:18;;;;;;;3.57;2.90;;;;;;;18.29;85.54;101969.78;5097115;28;20685;-73
2022/07/13 03:03:44;;;;;;;2.83;2.53;;;;;;;18.28;85.41;101962.84;5069870;28;20642;-73
2022/07/13 03:06:10;;;;;;;2.87;2.60;;;;;;;18.23;85.84;101961.13;5085446;28;20242;-73
2022/07/13 03:08:36;;;;;;;2.67;2.47;;;;;;;18.25;85.87;101964.56;5084965;28;20740;-74
2022/07/13 03:11:02;;;;;;;3.07;2.77;;;;;;;18.26;86.39;101963.72;5085241;28;20231;-73
2022/07/13 03:13:28;;;;;;;2.60;2.40;;;;;;;18.26;86.18;101969.78;5093595;28;20181;-73
2022/07/13 03:15:53;;;;;;;3.77;3.00;;;;;;;18.23;86.38;101961.13;5089648;28;20191;-73
2022/07/13 03:18:18;;;;;;;4.33;2.77;;;;;;;18.27;86.02;101952.47;5071446;28;20763;-73
2022/07/13 03:20:46;;;;;;;3.37;3.07;;;;;;;18.30;85.67;101958.56;5071834;28;20585;-73
2022/07/13 03:23:12;;;;;;;3.57;2.80;;;;;;;18.27;86.22;101958.53;5055205;28;20184;-73
2022/07/13 03:25:37;;;;;;;4.60;3.77;;;;;;;18.26;86.46;101956.81;5071904;28;20180;-73
2022/07/13 03:28:03;;;;;;;3.70;3.40;;;;;;;18.25;86.37;101961.97;5071295;28;20588;-73
2022/07/13 03:30:29;;;;;;;4.00;3.60;;;;;;;18.23;86.48;101972.34;5054857;28;20297;-73
2022/07/13 03:32:55;;;;;;;3.80;3.40;;;;;;;18.25;86.42;101977.53;5072197;28;20723;-73
2022/07/13 03:35:21;;;;;;;4.53;3.23;;;;;;;18.27;85.65;101963.72;5055064;28;20184;-73
2022/07/13 03:37:48;;;;;;;3.20;2.80;;;;;;;18.31;85.68;101962.00;5071180;28;20204;-73
2022/07/13 03:40:14;;;;;;;3.87;2.83;;;;;;;18.31;86.00;101962.00;5071413;28;20208;-73
2022/07/13 03:42:39;;;;;;;4.80;3.23;;;;;;;18.32;85.97;101958.53;5055102;28;20260;-72
2022/07/13 03:45:06;;;;;;;5.97;3.23;;;;;;;18.30;86.08;101957.69;5071293;28;20184;-73
2022/07/13 03:47:32;;;;;;;4.50;3.20;;;;;;;18.34;85.90;101954.28;5071083;28;20585;-73
2022/07/13 03:49:58;;;;;;;5.07;3.60;;;;;;;18.36;85.10;101949.97;5071460;28;20191;-73
2022/07/13 03:52:23;;;;;;;5.33;3.37;;;;;;;18.40;84.06;101949.13;5071564;28;20731;-73
2022/07/13 03:54:49;;;;;;;3.93;3.57;;;;;;;18.43;84.11;101946.56;5067997;28;20670;-73
2022/07/13 03:57:14;;;;;;;4.47;3.40;;;;;;;18.46;83.61;101947.44;5054306;28;20237;-73
2022/07/13 03:59:40;;;;;;;4.33;3.27;;;;;;;18.48;84.17;101937.94;5071012;28;20714;-73
2022/07/13 04:02:05;;;;;;;3.80;3.40;;;;;;;18.51;83.37;101930.16;5070782;28;20189;-73
2022/07/13 04:04:31;;;;;;;3.90;3.50;;;;;;;18.55;83.93;101918.94;5069633;28;20191;-73
2022/07/13 04:06:58;;;;;;;3.77;3.43;;;;;;;18.58;83.71;101918.97;5085178;28;20567;-73
2022/07/13 04:09:24;;;;;;;3.60;3.30;;;;;;;18.60;83.46;101927.59;5072071;28;20212;-73
2022/07/13 04:11:49;;;;;;;3.93;3.50;;;;;;;18.63;83.79;101926.75;5075137;28;20195;-73
2022/07/13 04:14:17;;;;;;;3.10;2.83;;;;;;;18.65;83.57;101920.69;5074890;28;20180;-73
2022/07/13 04:16:42;;;;;;;3.17;2.87;;;;;;;18.70;83.55;101908.59;5092525;28;20192;-74
2022/07/13 04:19:08;;;;;;;4.47;3.23;;;;;;;18.71;82.91;101912.09;5074826;28;20216;-73
2022/07/13 04:21:35;;;;;;;3.63;3.30;;;;;;;18.72;82.84;101917.28;5074953;28;20195;-73
2022/07/13 04:24:00;;;;;;;4.20;3.33;;;;;;;18.75;83.08;101913.81;5074869;28;20188;-72
2022/07/13 04:26:26;;;;;;;4.03;3.30;;;;;;;18.78;82.90;101900.84;5074340;28;20687;-73
2022/07/13 04:28:51;;;;;;;3.80;3.20;;;;;;;18.79;82.94;101893.06;5074675;28;20211;-73
2022/07/13 04:31:19;;;;;;;3.40;3.03;;;;;;;18.80;82.81;101886.16;5070362;28;20581;-73
2022/07/13 04:33:46;;;;;;;3.60;3.20;;;;;;;18.83;82.69;101893.97;5074756;28;20196;-73
2022/07/13 04:36:12;;;;;;;3.97;3.07;;;;;;;18.85;82.76;101887.91;5074446;28;20288;-74
2022/07/13 04:38:39;;;;;;;5.83;3.90;;;;;;;18.89;83.08;101899.16;5057980;28;20295;-73
2022/07/13 04:41:05;;;;;;;3.33;3.03;;;;;;;18.94;83.66;101907.81;5074406;28;20268;-73
2022/07/13 04:43:31;;;;;;;3.63;3.30;;;;;;;18.99;83.17;101901.78;5074669;28;20284;-73
2022/07/13 04:45:57;;;;;;;4.73;2.90;;;;;;;19.05;82.16;101899.19;5057801;28;20180;-72
2022/07/13 04:48:23;;;;;;;4.13;2.90;;;;;;;19.12;82.59;101897.47;5071222;28;20693;-73
2022/07/13 04:50:49;;;;;;;5.03;3.57;;;;;;;19.15;82.73;101898.34;5074176;28;20191;-72
2022/07/13 04:53:15;;;;;;;3.30;3.00;;;;;;;19.20;82.72;101890.56;5074305;28;20195;-72
2022/07/13 04:55:40;;;;;;;3.87;3.10;;;;;;;19.22;82.07;101900.13;5074225;28;20188;-72
2022/07/13 04:58:07;;;;;;;3.70;3.40;;;;;;;19.28;81.76;101894.06;5073885;28;20208;-72
2022/07/13 05:00:34;;;;;;;6.03;3.13;;;;;;;19.32;81.32;101886.28;5074340;28;20204;-72
2022/07/13 05:03:00;;;;;;;3.07;2.60;;;;;;;19.37;81.93;101884.53;5074422;28;20184;-72
2022/07/13 05:05:31;;;;;;;5.17;3.40;;;;;;;19.42;81.91;101882.81;5074747;28;20185;-73
2022/07/13 05:08:00;;;;;;;5.07;3.10;;;;;;;19.47;80.80;101881.06;5057306;28;20203;-72
2022/07/13 05:10:28;;;;;;;4.43;3.30;;;;;;;19.51;80.53;101879.34;5074087;28;20207;-73
2022/07/13 05:12:53;;;;;;;3.93;3.53;;;;;;;19.53;79.61;101870.66;5073972;28;20225;-72
2022/07/13 05:15:19;;;;;;;6.30;3.00;;;;;;;19.57;80.28;101872.41;5073437;28;20188;-72
2022/07/13 05:17:45;;;;;;;4.13;3.00;;;;;;;19.60;80.61;101866.34;5073669;28;20215;-72
2022/07/13 05:20:12;;;;;;;3.70;3.40;;;;;;;19.66;80.15;101855.94;5073339;28;20235;-73
2022/07/13 05:22:43;;;;;;;6.87;2.90;;;;;;;19.74;79.60;101857.66;5073095;28;20184;-72
2022/07/13 05:25:09;;;;;;;5.13;3.10;;;;;;;19.81;79.67;101863.72;5073407;28;20184;-72
2022/07/13 05:27:34;;;;;;;6.20;3.20;;;;;;;19.87;79.13;101858.50;5073291;28;20234;-73
2022/07/13 05:29:59;;;;;;;6.47;3.20;;;;;;;19.95;79.02;101857.59;5073676;28;20603;-72
2022/07/13 05:32:25;;;;;;;4.47;3.40;;;;;;;20.00;78.98;101849.81;5073747;28;20189;-72
2022/07/13 05:34:52;;;;;;;4.80;3.70;;;;;;;20.05;78.49;101855.84;5073449;28;20181;-73
2022/07/13 05:37:18;;;;;;;4.17;3.73;;;;;;;20.07;77.49;101857.56;5073053;28;20249;-72
2022/07/13 05:39:47;;;;;;;4.90;3.50;;;;;;;20.13;76.88;101856.72;5073302;28;20287;-72
2022/07/13 05:42:13;;;;;;;5.73;3.20;;;;;;;20.17;76.84;101861.91;5073544;28;20593;-72
2022/07/13 05:44:39;;;;;;;3.33;3.03;;;;;;;20.19;77.39;101857.59;5073298;28;20180;-72
2022/07/13 05:47:06;;;;;;;4.33;3.33;;;;;;;20.25;76.92;101856.66;5073070;28;20185;-72
2022/07/13 05:49:31;;;;;;;6.10;3.50;;;;;;;20.31;76.30;101857.50;5073283;28;20238;-72
2022/07/13 05:51:57;;;;;;;4.97;3.10;;;;;;;20.39;76.37;101863.56;5073130;28;20191;-72
2022/07/13 05:54:22;;;;;;;3.80;2.83;;;;;;;20.45;77.00;101860.06;5073272;28;20195;-72
2022/07/13 05:56:48;;;;;;;4.00;3.13;;;;;;;20.47;76.08;101847.91;5056196;28;20176;-72
2022/07/13 05:59:14;;;;;;;5.67;3.17;;;;;;;20.49;75.38;101846.19;5072760;28;20208;-73
2022/07/13 06:01:39;;;;;;;4.67;2.80;;;;;;;20.54;75.19;101852.22;5091154;28;20190;-72
2022/07/13 06:04:05;;;;;;;3.67;3.23;;;;;;;20.56;75.44;101855.66;5091493;28;20965;-72
2022/07/13 06:06:30;;;;;;;6.00;3.13;;;;;;;20.53;75.27;101853.94;5072706;28;20181;-72
2022/07/13 06:08:56;;;;;;;3.47;3.00;;;;;;;20.59;75.10;101866.09;5091064;28;20964;-73
2022/07/13 06:11:21;;;;;;;4.43;3.37;;;;;;;20.63;75.33;101860.84;5090981;28;20196;-72
2022/07/13 06:13:47;;;;;;;4.83;3.27;;;;;;;20.68;74.26;101864.28;5073030;28;20203;-72
2022/07/13 06:16:12;;;;;;;3.83;3.17;;;;;;;20.76;74.87;101861.63;5090893;28;20192;-72
2022/07/13 06:18:38;;;;;;;3.23;2.93;;;;;;;20.82;73.33;101865.06;5072633;28;20279;-72
2022/07/13 06:21:04;;;;;;;4.83;3.33;;;;;;;20.94;73.68;101853.72;5072642;28;20223;-72
2022/07/13 06:23:29;;;;;;;6.63;3.30;;;;;;;21.04;73.78;101856.28;5091155;28;20180;-72
2022/07/13 06:25:55;;;;;;;6.03;3.33;;;;;;;21.15;74.07;101846.63;5071294;28;20184;-73
2022/07/13 06:28:20;;;;;;;4.47;2.90;;;;;;;21.23;73.23;101841.38;5090392;28;20208;-72
2022/07/13 06:30:45;;;;;;;4.03;3.10;;;;;;;21.19;73.28;101837.06;5072574;28;20185;-73
2022/07/13 06:33:11;;;;;;;3.87;3.37;;;;;;;21.28;73.88;101823.97;5090225;28;20176;-73
2022/07/13 06:35:36;;;;;;;3.83;3.13;;;;;;;21.46;73.35;101829.84;5090617;28;20181;-72
2022/07/13 06:38:02;;;;;;;3.50;3.20;;;;;;;21.66;74.16;101821.84;5072182;28;20204;-72
2022/07/13 06:40:27;;;;;;;3.83;2.87;;;;;;;21.81;73.51;101816.50;5087142;28;20222;-72
2022/07/13 06:42:53;;;;;;;5.00;3.23;;;;;;;22.02;72.91;101814.50;5072248;28;20180;-72
2022/07/13 06:45:21;;;;;;;3.70;3.40;;;;;;;22.12;71.89;101818.72;5090410;28;20181;-72
2022/07/13 06:47:46;;;;;;;3.10;2.80;;;;;;;22.10;72.58;101817.91;5089940;28;20203;-73
2022/07/13 06:50:12;;;;;;;3.77;3.33;;;;;;;22.23;71.98;101816.00;5089435;28;20190;-73
2022/07/13 06:52:40;;;;;;;3.40;2.60;;;;;;;22.50;71.19;101812.19;5072142;28;20188;-73
2022/07/13 06:55:07;;;;;;;2.97;2.67;;;;;;;22.68;69.65;101806.69;5071901;28;20254;-73
2022/07/13 06:57:33;;;;;;;4.83;2.90;;;;;;;22.86;69.58;101804.69;5054918;28;20220;-72
2022/07/13 06:59:58;;;;;;;4.30;2.30;;;;;;;22.88;68.86;101797.69;5090008;28;20212;-73
2022/07/13 07:02:24;;;;;;;2.50;2.20;;;;;;;22.84;68.48;101803.84;5071752;28;20281;-73
2022/07/13 07:04:49;;;;;;;3.10;2.10;;;;;;;22.72;68.05;101798.81;5071720;28;20631;-73
2022/07/13 07:07:15;;;;;;;2.70;2.00;;;;;;;22.61;67.90;101805.94;5089692;28;20666;-73
2022/07/13 07:09:41;;;;;;;3.23;2.30;;;;;;;22.62;68.78;101807.69;5090034;28;20576;-73
2022/07/13 07:12:06;;;;;;;5.43;2.57;;;;;;;22.61;70.40;101798.09;5089845;28;20258;-73
2022/07/13 07:14:32;;;;;;;3.83;2.50;;;;;;;22.52;70.06;101805.22;5089408;28;20960;-72
2022/07/13 07:16:59;;;;;;;4.70;3.03;;;;;;;22.49;70.48;101808.72;5055121;28;20662;-73
2022/07/13 07:19:24;;;;;;;4.60;2.10;;;;;;;22.54;69.88;101808.66;5085455;28;20212;-72
2022/07/13 07:21:51;;;;;;;2.13;1.93;;;;;;;22.53;68.59;101805.19;5090118;28;20216;-72
2022/07/13 07:24:17;;;;;;;3.70;2.10;;;;;;;22.48;67.97;101811.34;5071737;28;20245;-72
2022/07/13 07:26:42;;;;;;;2.30;2.10;;;;;;;22.50;67.13;101814.78;5070794;28;20603;-72
2022/07/13 07:29:08;;;;;;;4.90;1.80;;;;;;;22.50;67.33;101806.97;5089596;28;20207;-72
2022/07/13 07:31:33;;;;;;;5.20;2.17;;;;;;;22.51;66.80;101806.09;5071554;28;20188;-72
2022/07/13 07:33:58;;;;;;;2.77;2.27;;;;;;;22.47;66.54;101797.41;5089740;28;20223;-72
2022/07/13 07:36:24;;;;;;;4.10;1.87;;;;;;;22.52;67.15;101807.81;5089678;28;20226;-72
2022/07/13 07:38:49;;;;;;;2.20;2.00;;;;;;;22.49;66.64;101805.25;5089549;28;20257;-72
2022/07/13 07:41:15;;;;;;;2.13;1.97;;;;;;;22.47;66.85;101804.41;5088435;28;20669;-72
2022/07/13 07:43:40;;;;;;;2.27;2.07;;;;;;;22.37;66.68;101792.34;5088750;28;20180;-72
2022/07/13 07:46:06;;;;;;;3.13;2.10;;;;;;;22.39;66.50;101794.88;5105037;28;20184;-73
2022/07/13 07:48:32;;;;;;;3.60;2.10;;;;;;;22.36;66.43;101788.84;5075558;28;20295;-72
2022/07/13 07:50:58;;;;;;;2.60;2.10;;;;;;;22.37;66.12;101787.97;5068016;28;20188;-72
2022/07/13 07:53:23;;;;;;;4.63;2.30;;;;;;;22.35;65.55;101792.34;5088903;28;20313;-72
2022/07/13 07:55:49;;;;;;;3.70;2.47;;;;;;;22.37;65.69;101769.69;5081157;28;20203;-72
2022/07/13 07:58:14;;;;;;;3.70;2.40;;;;;;;22.20;66.36;101756.03;5068819;28;20256;-72
2022/07/13 08:00:41;;;;;;;2.37;2.17;;;;;;;22.27;66.50;101749.81;5069103;28;20209;-72
2022/07/13 08:03:07;;;;;;;3.10;2.80;;;;;;;22.30;66.91;101760.22;5069176;28;20573;-72
2022/07/13 08:05:33;;;;;;;5.27;2.83;;;;;;;22.35;66.83;101759.25;5084343;28;20192;-72
2022/07/13 08:07:59;;;;;;;2.80;2.27;;;;;;;22.42;67.24;101773.09;5075795;28;20203;-72
2022/07/13 08:10:24;;;;;;;2.30;2.10;;;;;;;22.57;67.38;101772.06;5089112;28;20216;-72
2022/07/13 08:12:51;;;;;;;6.27;2.10;;;;;;;22.80;66.75;101778.66;5089346;28;20212;-72
2022/07/13 08:15:16;;;;;;;4.03;2.00;;;;;;;22.67;66.59;101779.75;5089244;28;20189;-73
2022/07/13 08:17:42;;;;;;;3.17;2.40;;;;;;;22.84;66.40;101769.88;5088988;28;20219;-72
2022/07/13 08:20:08;;;;;;;4.40;2.17;;;;;;;22.97;65.30;101766.19;5089070;28;20212;-72
2022/07/13 08:22:34;;;;;;;5.27;2.37;;;;;;;22.93;64.82;101766.25;5089085;28;20324;-72
2022/07/13 08:24:59;;;;;;;2.97;2.43;;;;;;;22.92;63.43;101768.00;5088988;28;20233;-72
2022/07/13 08:27:26;;;;;;;3.37;2.47;;;;;;;23.12;63.61;101762.44;5104308;28;20181;-72
2022/07/13 08:29:52;;;;;;;5.37;2.40;;;;;;;23.34;63.50;101769.06;5089021;28;20246;-73
2022/07/13 08:32:17;;;;;;;5.63;2.93;;;;;;;23.46;63.12;101760.97;5063099;28;20177;-74
2022/07/13 08:40:11;;;;;;;2.10;2.00;;;;;;;23.79;59.47;101765.56;5088840;28;20254;-72
2022/07/13 08:42:38;;;;;;;2.60;2.40;;;;;;;23.84;60.57;101759.34;5088991;28;20177;-72
2022/07/13 08:45:04;;;;;;;2.47;2.27;;;;;;;24.01;58.93;101759.91;5088994;28;20199;-72
2022/07/13 08:47:30;;;;;;;4.57;2.30;;;;;;;24.27;58.34;101757.56;5088825;28;20216;-72
2022/07/13 08:50:04;;;;;;;2.58;2.15;;;;;;;24.40;57.20;101756.41;5068378;28;20621;-72
2022/07/13 08:52:30;;;;;;;3.17;2.38;;;;;;;24.47;56.21;101760.63;5089121;28;20718;-72
2022/07/13 08:54:58;;;;;;;3.30;2.60;;;;;;;24.55;57.29;101752.59;5089047;28;20173;-73
2022/07/13 08:57:24;;;;;;;3.22;2.20;;;;;;;24.55;57.99;101755.22;5092258;28;20247;-72
2022/07/13 08:59:51;;;;;;;2.53;2.17;;;;;;;24.46;57.66;101756.28;5092436;28;20238;-73
2022/07/13 09:02:17;;;;;;;4.40;2.22;;;;;;;24.45;57.50;101757.16;5074081;28;20271;-72
2022/07/13 09:04:44;;;;;;;5.63;2.45;;;;;;;24.42;58.18;101762.50;5092030;28;20599;-73
2022/07/13 09:07:13;;;;;;;3.75;2.47;;;;;;;24.35;57.78;101760.06;5092125;28;20276;-72
2022/07/13 09:09:39;;;;;;;5.40;2.42;;;;;;;24.29;58.23;101761.03;5092228;28;20179;-72
2022/07/13 09:12:16;;;;;;;3.90;2.00;;;;;;;24.31;57.55;101758.41;5092337;28;20188;-71
2022/07/13 09:14:57;;;;;;;7.10;2.40;;;;;;;24.34;57.99;101746.09;5092218;28;20233;-71
2022/07/13 09:17:27;;;;;;;3.60;2.08;;;;;;;24.42;57.30;101752.03;5091850;28;20631;-71
2022/07/13 09:19:52;;;;;;;4.43;2.17;;;;;;;24.28;57.01;101750.59;5073968;28;20632;-71
2022/07/13 09:22:17;;;;;;;3.88;2.30;;;;;;;24.20;57.52;101744.66;5073677;28;20279;-71
2022/07/13 09:24:48;;;;;;;5.60;2.35;;;;;;;24.36;57.99;101740.81;5091871;28;20666;-71
2022/07/13 09:27:15;;;;;;;4.47;2.30;;;;;;;24.35;57.94;101742.56;5091492;28;20670;-72
2022/07/13 09:29:41;;;;;;;2.42;1.98;;;;;;;24.53;57.19;101738.66;5091759;28;20192;-71
2022/07/13 09:32:14;;;;;;;3.55;2.03;;;;;;;24.61;57.33;101737.63;5073687;28;20565;-72
2022/07/13 09:34:46;;;;;;;3.75;2.10;;;;;;;24.75;57.54;101738.16;5091964;28;20195;-72
2022/07/13 09:37:12;;;;;;;3.80;2.35;;;;;;;24.91;57.28;101741.25;5073401;28;20189;-73
2022/07/13 09:39:57;;;;;;;3.58;2.88;;;;;;;24.97;56.22;101735.84;5091748;28;20212;-73
2022/07/13 09:42:30;;;;;;;3.75;2.63;;;;;;;25.15;55.83;101728.41;5073767;28;20188;-72
2022/07/13 09:47:47;;;;;;;3.95;2.65;;;;;;;25.19;55.17;101724.75;5091447;28;20207;-71
2022/07/13 09:50:15;;;;;;;5.60;2.70;;;;;;;25.35;54.01;101728.75;5092351;28;20160;-71
2022/07/13 09:52:41;;;;;;;5.63;2.50;;;;;;;25.61;54.71;101718.41;5091643;28;20259;-72
2022/07/13 09:55:10;;;;;;;5.20;2.80;;;;;;;25.98;54.79;101715.59;5091643;28;20263;-72
2022/07/13 09:57:43;;;;;;;4.28;2.15;;;;;;;26.45;53.12;101720.22;5091396;28;20311;-71
2022/07/13 10:00:11;;;;;;;3.97;2.40;;;;;;;26.84;52.15;101716.34;5091496;28;20199;-72
2022/07/13 10:02:38;;;;;;;3.72;2.35;;;;;;;26.90;50.79;101713.50;5091203;28;20223;-72
2022/07/13 10:05:05;;;;;;;3.65;2.25;;;;;;;27.20;49.38;101708.09;5091332;28;20196;-72
2022/07/13 10:07:31;;;;;;;5.40;2.53;;;;;;;27.27;49.49;101712.19;5090220;28;20200;-72
2022/07/13 10:09:57;;;;;;;4.88;2.80;;;;;;;27.23;48.14;101720.28;5091175;28;20234;-72
2022/07/13 10:12:23;;;;;;;3.60;2.28;;;;;;;27.16;46.77;101708.19;5091168;28;20268;-72
2022/07/13 10:14:49;;;;;;;4.93;2.00;;;;;;;27.47;47.10;101714.13;5090931;28;20280;-72
2022/07/13 10:17:16;;;;;;;4.88;2.35;;;;;;;27.77;46.61;101716.50;5090218;28;20200;-72
2022/07/13 10:19:44;;;;;;;3.80;2.08;;;;;;;28.07;46.29;101703.97;5090938;28;20247;-73
2022/07/13 10:22:19;;;;;;;3.13;2.35;;;;;;;28.09;45.89;101697.72;5090833;28;20253;-73
2022/07/13 10:24:58;;;;;;;2.67;1.90;;;;;;;27.89;45.59;101702.03;5090943;28;20186;-73
2022/07/13 10:27:26;;;;;;;2.85;1.80;;;;;;;28.46;44.92;101694.53;5072166;28;20836;-73
2022/07/13 10:30:17;;;;;;;2.95;2.00;;;;;;;28.62;44.44;101687.69;5072672;28;20184;-73
2022/07/13 10:32:44;;;;;;;3.53;1.90;;;;;;;28.86;44.57;101684.91;5085726;28;20195;-72
2022/07/13 10:35:12;;;;;;;3.15;1.92;;;;;;;29.14;43.31;101682.81;5090576;28;20196;-72
2022/07/13 10:37:56;;;;;;;2.13;1.77;;;;;;;28.46;43.98;101690.09;5090263;28;20208;-72
2022/07/13 10:40:28;;;;;;;4.28;2.13;;;;;;;28.63;43.96;101686.75;5090386;28;20570;-72
2022/07/13 10:42:53;;;;;;;2.58;2.20;;;;;;;29.21;42.65;101675.47;5090425;28;20181;-73
2022/07/13 10:45:48;;;;;;;6.78;2.10;;;;;;;29.21;42.76;101680.75;5090415;28;20579;-72
2022/07/13 10:48:16;;;;;;;3.42;2.40;;;;;;;29.34;41.56;101685.41;5090098;28;20257;-72
2022/07/13 10:50:54;;;;;;;3.58;2.47;;;;;;;29.18;43.23;101683.53;5090342;28;20200;-72
2022/07/13 10:53:45;;;;;;;3.97;2.97;;;;;;;29.45;41.92;101687.59;5087633;28;20224;-72
2022/07/13 10:56:16;;;;;;;3.78;2.63;;;;;;;29.85;42.39;101684.88;5058148;28;20196;-72
2022/07/13 10:58:43;;;;;;;4.63;2.80;;;;;;;29.69;41.66;101684.72;5054555;28;20629;-72
2022/07/13 11:01:33;;;;;;;3.88;2.85;;;;;;;29.77;41.63;101679.97;5070871;28;20305;-72
2022/07/13 11:03:59;;;;;;;3.35;2.50;;;;;;;29.96;41.50;101685.22;5089713;28;20177;-72
2022/07/13 11:06:25;;;;;;;4.28;2.83;;;;;;;30.03;42.09;101684.84;5089460;28;20788;-72
2022/07/13 11:09:10;;;;;;;3.65;2.63;;;;;;;29.97;42.25;101685.16;5089514;28;20204;-72
2022/07/13 11:11:53;;;;;;;4.57;2.58;;;;;;;30.25;41.46;101674.13;5069259;28;20969;-72
2022/07/13 11:14:40;;;;;;;2.70;2.50;;;;;;;30.50;40.51;101679.97;5065609;28;20181;-72
2022/07/13 11:17:18;;;;;;;3.08;2.78;;;;;;;30.62;40.80;101670.56;5050888;28;20189;-73
2022/07/13 11:19:54;;;;;;;3.30;2.97;;;;;;;30.43;40.37;101670.59;5068994;28;20196;-72
2022/07/13 11:22:21;;;;;;;4.00;3.17;;;;;;;30.87;41.41;101668.41;5069041;28;20181;-72
2022/07/13 11:25:28;;;;;;;5.85;2.58;;;;;;;31.16;40.82;101665.13;5076858;28;20237;-73
2022/07/13 11:28:06;;;;;;;3.33;3.03;;;;;;;30.68;40.39;101664.97;5085545;28;20204;-72
2022/07/13 11:30:35;;;;;;;2.97;2.50;;;;;;;31.05;40.48;101670.09;5089321;28;20267;-72
2022/07/13 11:33:00;;;;;;;3.45;2.60;;;;;;;30.35;41.43;101667.50;5088924;28;20224;-72